Time;durP1;ratioP1;P1;durP2;ratioP2;P2;SDS_P1;SDS_P2;PMS_P1;PMS_P2;Temp;Humidity;BMP_temperature;BMP_pressure;BME280_temperature;BME280_humidity;BME280_pressure;Samples;Min_cycle;Max_cycle;Signal;HPM_P1;HPM_P2
2021/06/16 00:00:15;;;;;;;;;19.25;19.25;;;;;26.24;100.00;101197.84;4866150;29;45707;-66
2021/06/16 00:02:42;;;;;;;;;19.75;19.75;;;;;26.63;100.00;101262.03;4883026;29;45317;-65
2021/06/16 00:05:13;;;;;;;;;21.50;19.25;;;;;26.32;100.00;101221.41;4883255;29;45238;-65
2021/06/16 00:11:00;;;;;;;;;20.50;19.25;;;;;26.22;100.00;101209.63;4882095;29;45358;-66
2021/06/16 00:13:26;;;;;;;;;23.00;21.25;;;;;26.47;100.00;101252.44;4882748;29;45389;-66
2021/06/16 00:15:52;;;;;;;;;22.50;21.00;;;;;26.19;100.00;101213.41;4883072;29;45358;-65
2021/06/16 00:18:17;;;;;;;;;23.00;22.75;;;;;26.25;100.00;101230.84;4882523;29;46372;-66
2021/06/16 00:20:43;;;;;;;;;18.75;18.50;;;;;26.44;100.00;101263.38;4882775;29;45340;-66
2021/06/16 00:23:09;;;;;;;;;21.25;21.00;;;;;26.36;100.00;101249.69;4882522;29;45304;-66
2021/06/16 00:25:35;;;;;;;;;24.50;23.25;;;;;25.83;100.00;101176.75;4882881;29;45342;-66
2021/06/16 00:28:01;;;;;;;;;26.00;22.25;;;;;25.93;100.00;101185.84;4882670;29;45433;-66
2021/06/16 00:30:27;;;;;;;;;20.25;19.25;;;;;26.26;100.00;101248.63;4882582;29;45375;-66
2021/06/16 00:32:53;;;;;;;;;21.00;21.00;;;;;26.30;100.00;101252.78;4882762;29;45341;-66
2021/06/16 00:35:20;;;;;;;;;22.25;22.00;;;;;25.98;100.00;101203.38;4882953;29;45329;-66
2021/06/16 00:41:07;;;;;;;;;22.50;22.50;;;;;26.15;100.00;101237.81;4882246;29;45598;-65
2021/06/16 00:43:33;;;;;;;;;23.00;22.50;;;;;26.08;100.00;101223.19;4882678;29;45442;-66
2021/06/16 00:45:58;;;;;;;;;24.25;22.00;;;;;25.83;100.00;101187.47;4882392;29;45455;-66
2021/06/16 00:48:24;;;;;;;;;26.00;23.25;;;;;25.83;100.00;101198.16;4882182;29;46526;-66
2021/06/16 00:50:49;;;;;;;;;27.25;22.50;;;;;25.74;100.00;101184.56;4882362;29;45245;-66
2021/06/16 00:53:15;;;;;;;;;27.00;26.25;;;;;26.03;100.00;101233.38;4882503;29;45356;-66
2021/06/16 00:55:40;;;;;;;;;26.75;25.00;;;;;25.77;100.00;101187.03;4882710;29;45472;-66
2021/06/16 00:58:10;;;;;;;;;24.75;22.50;;;;;25.81;100.00;101205.44;4882004;29;46318;-66
2021/06/16 01:00:55;;;;;;;;;26.25;25.25;;;;;25.88;100.00;101208.53;4882272;29;45732;-66
2021/06/16 01:03:42;;;;;;;;;22.75;22.00;;;;;26.00;100.00;101236.22;4882272;29;45463;-67
2021/06/16 01:06:27;;;;;;;;;23.25;23.00;;;;;25.93;100.00;101227.78;4882357;29;45286;-66
2021/06/16 01:09:16;;;;;;;;;20.00;19.25;;;;;25.93;100.00;101234.00;4864770;29;47238;-66
2021/06/16 01:11:57;;;;;;;;;26.00;23.75;;;;;25.67;100.00;101189.50;4864719;29;45395;-66
2021/06/16 01:14:47;;;;;;;;;21.25;20.75;;;;;25.76;100.00;101210.25;4881875;29;45448;-66
2021/06/16 01:17:17;;;;;;;;;21.25;20.50;;;;;25.76;100.00;101209.38;4881969;29;45541;-66
2021/06/16 01:19:58;;;;;;;;;25.00;22.75;;;;;25.50;100.00;101168.41;4881881;29;45408;-65
2021/06/16 01:22:50;;;;;;;;;24.75;23.75;;;;;25.61;100.00;101190.75;4881750;29;45613;-67
2021/06/16 01:25:31;;;;;;;;;24.00;21.75;;;;;25.63;100.00;101198.69;4881757;29;45270;-66
2021/06/16 01:27:58;;;;;;;;;24.00;24.00;;;;;25.61;100.00;101204.13;4882194;29;45429;-66
2021/06/16 01:30:31;;;;;;;;;22.75;21.25;;;;;25.57;100.00;101201.75;4881690;29;46667;-67
2021/06/16 01:32:59;;;;;;;;;25.00;22.50;;;;;25.46;100.00;101193.63;4881530;29;45546;-66
2021/06/16 01:35:27;;;;;;;;;19.75;19.75;;;;;25.35;100.00;101183.69;4882360;29;45238;-66
2021/06/16 01:37:53;;;;;;;;;21.00;20.50;;;;;25.37;100.00;101203.16;4885455;29;45419;-66
2021/06/16 01:40:21;;;;;;;;;25.50;23.00;;;;;25.13;100.00;101152.25;4884959;29;45411;-65
2021/06/16 01:42:48;;;;;;;;;25.25;20.00;;;;;25.39;100.00;101208.41;4884974;29;45616;-66
2021/06/16 01:45:16;;;;;;;;;22.25;21.00;;;;;25.28;100.00;101177.91;4885104;29;45418;-65
2021/06/16 01:47:44;;;;;;;;;21.75;21.75;;;;;25.32;100.00;101187.41;4885203;29;45412;-66
2021/06/16 01:50:12;;;;;;;;;23.25;21.25;;;;;25.17;100.00;101177.78;4884930;29;45484;-65
2021/06/16 01:52:39;;;;;;;;;22.75;21.50;;;;;24.91;100.00;101128.78;4884730;29;45300;-65
2021/06/16 01:55:06;;;;;;;;;21.25;21.25;;;;;25.23;100.00;101189.88;4884883;29;45488;-66
2021/06/16 01:57:34;;;;;;;;;21.00;21.00;;;;;25.08;100.00;101175.72;4884866;29;45400;-66
2021/06/16 02:00:00;;;;;;;;;22.75;21.00;;;;;25.13;100.00;101189.66;4884708;29;46603;-66
2021/06/16 02:02:26;;;;;;;;;22.75;20.75;;;;;25.07;100.00;101197.22;4884498;29;45735;-66
2021/06/16 02:04:51;;;;;;;;;21.75;21.50;;;;;25.02;100.00;101186.84;4884510;29;45436;-67
2021/06/16 02:07:27;;;;;;;;;23.25;21.25;;;;;24.95;100.00;101190.88;4885121;29;45217;-65
2021/06/16 02:09:54;;;;;;;;;21.25;21.25;;;;;24.88;100.00;101182.38;4884480;29;45541;-66
2021/06/16 02:12:21;;;;;;;;;18.75;17.25;;;;;24.59;100.00;101141.59;4884543;29;45673;-66
2021/06/16 02:15:00;;;;;;;;;22.50;20.00;;;;;24.49;100.00;101137.84;4884854;29;45227;-67
2021/06/16 02:17:29;;;;;;;;;21.00;21.00;;;;;24.58;100.00;101139.91;4884884;29;45337;-66
2021/06/16 02:19:55;;;;;;;;;20.75;19.25;;;;;24.77;100.00;101168.06;4884215;29;45379;-66
2021/06/16 02:22:23;;;;;;;;;23.75;23.00;;;;;24.43;100.00;101125.72;4884646;29;45284;-66
2021/06/16 02:24:49;;;;;;;;;21.25;20.00;;;;;24.43;100.00;101132.88;4884560;29;45377;-66
2021/06/16 02:27:15;;;;;;;;;22.25;20.75;;;;;24.61;100.00;101169.06;4884698;29;45351;-66
2021/06/16 02:29:40;;;;;;;;;19.50;18.00;;;;;24.58;100.00;101158.59;4884003;29;46166;-66
2021/06/16 02:32:06;;;;;;;;;21.25;18.75;;;;;24.63;100.00;101168.94;4884081;29;45302;-65
2021/06/16 02:34:32;;;;;;;;;20.25;19.00;;;;;24.31;100.00;101123.03;4867281;29;45370;-66
2021/06/16 02:37:02;;;;;;;;;22.00;17.75;;;;;24.51;100.00;101146.59;4884667;29;45337;-66
2021/06/16 02:39:36;;;;;;;;;20.50;19.25;;;;;24.53;100.00;101147.34;4883874;29;46493;-65
2021/06/16 02:42:04;;;;;;;;;24.00;19.00;;;;;24.26;100.00;101104.63;4884296;29;45377;-66
2021/06/16 02:44:31;;;;;;;;;18.50;17.75;;;;;24.58;100.00;101153.25;4884154;29;45547;-66
2021/06/16 02:46:59;;;;;;;;;19.75;19.00;;;;;24.32;100.00;101103.41;4884398;29;45431;-66
2021/06/16 02:49:30;;;;;;;;;25.75;22.50;;;;;24.37;100.00;101112.81;4883705;29;46391;-66
2021/06/16 02:51:59;;;;;;;;;20.00;19.50;;;;;24.53;100.00;101141.16;4883615;29;45719;-65
2021/06/16 02:54:26;;;;;;;;;20.00;19.50;;;;;24.57;100.00;101156.88;4884195;29;45356;-66
2021/06/16 02:56:53;;;;;;;;;20.75;19.75;;;;;24.21;100.00;101084.50;4884309;29;45516;-66
2021/06/16 02:59:20;;;;;;;;;21.25;20.50;;;;;24.20;100.00;101086.31;4883996;29;45503;-66
2021/06/16 03:01:47;;;;;;;;;19.50;18.75;;;;;24.03;100.00;101062.59;4883718;29;45796;-65
2021/06/16 03:04:14;;;;;;;;;20.00;18.50;;;;;24.32;100.00;101095.38;4884012;29;45358;-67
2021/06/16 03:06:41;;;;;;;;;21.00;21.00;;;;;24.25;100.00;101096.72;4884210;29;45347;-66
2021/06/16 03:09:07;;;;;;;;;22.50;21.00;;;;;24.29;100.00;101107.13;4883709;29;45420;-65
2021/06/16 03:11:33;;;;;;;;;22.25;20.50;;;;;24.17;100.00;101099.88;4883445;29;45385;-65
2021/06/16 03:14:02;;;;;;;;;22.25;19.50;;;;;24.37;100.00;101143.97;4883614;29;45441;-65
2021/06/16 03:16:28;;;;;;;;;21.25;21.00;;;;;24.26;100.00;101136.66;4883811;29;45372;-66
2021/06/16 03:18:54;;;;;;;;;22.25;20.50;;;;;23.71;100.00;101048.66;4883319;29;46394;-66
2021/06/16 03:21:21;;;;;;;;;19.50;18.00;;;;;23.88;100.00;101080.44;4883715;29;45579;-66
2021/06/16 03:27:08;;;;;;;;;21.50;21.50;;;;;24.09;100.00;101139.56;4883626;29;45304;-65
2021/06/16 03:29:35;;;;;;;;;20.00;20.00;;;;;23.86;100.00;101108.16;4883460;29;45774;-66
2021/06/16 03:32:02;;;;;;;;;23.25;22.75;;;;;24.02;100.00;101147.09;4883502;29;45566;-66
2021/06/16 03:34:28;;;;;;;;;21.50;19.50;;;;;23.95;100.00;101137.75;4883620;29;45297;-66
2021/06/16 03:36:59;;;;;;;;;19.50;18.50;;;;;23.84;100.00;101108.25;4883743;29;45414;-65
2021/06/16 03:39:26;;;;;;;;;22.25;22.00;;;;;23.81;100.00;101097.78;4883363;29;45292;-66
2021/06/16 03:41:53;;;;;;;;;22.50;21.75;;;;;23.58;100.00;101069.91;4883289;29;45421;-66
2021/06/16 03:44:21;;;;;;;;;24.25;20.50;;;;;24.01;100.00;101131.19;4883504;29;45336;-66
2021/06/16 03:46:48;;;;;;;;;28.50;24.25;;;;;23.66;100.00;101088.09;4883652;29;45397;-66
2021/06/16 03:49:15;;;;;;;;;23.50;20.50;;;;;23.78;100.00;101095.31;4883141;29;46473;-67
2021/06/16 03:51:43;;;;;;;;;24.75;24.00;;;;;24.05;100.00;101138.88;4883316;29;45305;-67
2021/06/16 03:57:31;;;;;;;;;22.75;22.00;;;;;24.03;100.00;101145.28;4883279;29;45324;-66
2021/06/16 03:59:57;;;;;;;;;21.00;20.75;;;;;23.97;100.00;101135.84;4882499;29;45553;-67
2021/06/16 04:02:23;;;;;;;;;23.75;22.25;;;;;24.04;100.00;101139.00;4882844;29;45488;-66
2021/06/16 04:04:49;;;;;;;;;23.50;21.50;;;;;23.97;100.00;101127.84;4882747;29;45390;-67
2021/06/16 04:07:20;;;;;;;;;27.00;23.00;;;;;23.98;100.00;101120.69;4882961;29;45509;-66
2021/06/16 04:09:54;;;;;;;;;24.00;22.00;;;;;23.94;100.00;101112.03;4882696;29;46481;-66
2021/06/16 04:12:20;;;;;;;;;22.00;22.00;;;;;24.04;100.00;101125.66;4883084;29;45296;-66
2021/06/16 04:14:47;;;;;;;;;22.00;21.50;;;;;24.01;100.00;101123.19;4883077;29;45336;-66
2021/06/16 04:17:15;;;;;;;;;22.25;21.75;;;;;24.06;100.00;101134.41;4883244;29;45394;-66
2021/06/16 04:19:40;;;;;;;;;26.00;22.25;;;;;24.02;100.00;101135.56;4882604;29;46748;-64
2021/06/16 04:22:06;;;;;;;;;24.50;23.75;;;;;23.85;100.00;101103.78;4865584;29;45600;-65
2021/06/16 04:24:31;;;;;;;;;23.50;22.00;;;;;24.00;100.00;101135.66;4882811;29;45550;-66
2021/06/16 04:26:56;;;;;;;;;24.75;23.25;;;;;23.98;100.00;101140.22;4883007;29;45368;-66
2021/06/16 04:29:22;;;;;;;;;25.50;24.25;;;;;23.83;100.00;101112.72;4882193;29;45409;-66
2021/06/16 04:31:48;;;;;;;;;27.50;21.25;;;;;24.00;100.00;101135.66;4882244;29;45296;-65
2021/06/16 04:34:13;;;;;;;;;20.25;20.00;;;;;24.01;100.00;101131.19;4882279;29;45351;-65
2021/06/16 04:36:38;;;;;;;;;27.25;23.75;;;;;23.99;100.00;101119.72;4882281;29;45230;-64
2021/06/16 04:42:26;;;;;;;;;24.00;20.75;;;;;24.01;100.00;101107.19;4882223;29;45362;-65
2021/06/16 04:44:51;;;;;;;;;24.00;23.00;;;;;23.96;100.00;101090.59;4882419;29;45401;-65
2021/06/16 04:47:17;;;;;;;;;22.75;21.75;;;;;24.15;100.00;101112.47;4882647;29;45417;-65
2021/06/16 04:49:44;;;;;;;;;24.50;23.50;;;;;24.08;100.00;101100.47;4881829;29;46104;-65
2021/06/16 04:52:10;;;;;;;;;27.75;25.50;;;;;24.18;100.00;101109.59;4881858;29;45238;-67
2021/06/16 04:57:57;;;;;;;;;27.25;25.00;;;;;24.16;100.00;101086.63;4882549;29;45261;-67
2021/06/16 05:00:22;;;;;;;;;24.00;23.00;;;;;24.16;100.00;101087.50;4881979;29;46392;-67
2021/06/16 05:02:52;;;;;;;;;25.00;24.00;;;;;24.24;100.00;101090.53;4881988;29;45260;-67
2021/06/16 05:05:18;;;;;;;;;26.75;24.50;;;;;24.10;100.00;101055.88;4882124;29;45419;-67
2021/06/16 05:07:43;;;;;;;;;26.50;23.75;;;;;24.29;100.00;101104.44;4882101;29;45410;-66
2021/06/16 05:10:09;;;;;;;;;24.50;24.50;;;;;24.24;100.00;101084.34;4880856;29;46659;-67
2021/06/16 05:12:34;;;;;;;;;47.50;39.50;;;;;24.31;100.00;101080.34;4881734;29;45507;-66
2021/06/16 05:15:00;;;;;;;;;27.00;25.75;;;;;24.19;100.00;101055.25;4882007;29;45405;-67
2021/06/16 05:17:25;;;;;;;;;28.25;27.00;;;;;24.35;100.00;101071.16;4881894;29;45442;-67
2021/06/16 05:19:56;;;;;;;;;27.25;27.00;;;;;24.38;100.00;101078.97;4881951;29;46059;-66
2021/06/16 05:28:28;;;;;;;;;31.00;24.00;;;;;24.51;100.00;101087.88;4881953;29;45368;-69
2021/06/16 05:30:54;;;;;;;;;31.50;29.00;;;;;24.47;100.00;101073.03;4881719;29;45718;-69
2021/06/16 05:33:19;;;;;;;;;37.00;32.00;;;;;24.50;100.00;101075.47;4881457;29;45383;-69
2021/06/16 05:35:45;;;;;;;;;33.00;31.25;;;;;24.51;100.00;101077.19;4881635;29;45268;-69
2021/06/16 05:38:10;;;;;;;;;30.50;27.75;;;;;24.44;100.00;101070.53;4881727;29;45343;-70
2021/06/16 05:40:36;;;;;;;;;32.50;30.50;;;;;24.45;100.00;101082.94;4881314;29;45669;-69
2021/06/16 05:43:02;;;;;;;;;29.50;27.25;;;;;24.38;100.00;101081.63;4881738;29;45534;-69
2021/06/16 05:45:27;;;;;;;;;32.00;29.75;;;;;24.44;100.00;101091.88;4881270;29;45348;-68
2021/06/16 05:47:53;;;;;;;;;29.25;28.25;;;;;24.41;100.00;101078.75;4881453;29;45494;-68
2021/06/16 05:50:19;;;;;;;;;29.00;28.00;;;;;24.43;100.00;101082.16;4864458;29;47613;-68
2021/06/16 05:52:45;;;;;;;;;30.50;28.75;;;;;24.39;100.00;101080.66;4881461;29;45429;-68
2021/06/16 05:55:10;;;;;;;;;31.75;29.25;;;;;24.33;100.00;101065.06;4881526;29;45360;-68
2021/06/16 05:57:36;;;;;;;;;31.00;29.75;;;;;24.36;100.00;101067.53;4881813;29;45309;-68
2021/06/16 06:00:04;;;;;;;;;29.00;27.00;;;;;24.14;100.00;101026.22;4881417;29;46444;-68
2021/06/16 06:02:29;;;;;;;;;29.25;28.75;;;;;24.40;100.00;101071.69;4881502;29;45593;-69
2021/06/16 06:04:55;;;;;;;;;33.50;30.00;;;;;24.28;100.00;101035.13;4881277;29;45222;-68
2021/06/16 06:07:22;;;;;;;;;32.50;29.50;;;;;24.51;100.00;101069.19;4881316;29;45312;-68
2021/06/16 06:13:23;;;;;;;;;31.25;29.75;;;;;24.59;100.00;101068.66;4879636;29;45784;-68
2021/06/16 06:15:48;;;;;;;;;31.00;30.00;;;;;24.66;100.00;101072.63;4881341;29;45282;-68
2021/06/16 06:18:13;;;;;;;;;33.00;31.25;;;;;24.76;100.00;101079.06;4881567;29;45380;-68
2021/06/16 06:20:39;;;;;;;;;30.25;29.00;;;;;24.75;100.00;101066.66;4881231;29;46491;-68
2021/06/16 06:23:04;;;;;;;;;33.00;30.00;;;;;24.90;100.00;101078.97;4883767;29;45416;-68
2021/06/16 06:25:29;;;;;;;;;37.00;32.75;;;;;24.91;100.00;101067.34;4884645;29;45400;-68
2021/06/16 06:27:55;;;;;;;;;33.00;30.25;;;;;25.02;100.00;101080.81;4884266;29;45434;-67
2021/06/16 06:30:20;;;;;;;;;33.25;30.75;;;;;25.06;100.00;101081.47;4884299;29;45590;-67
2021/06/16 06:32:46;;;;;;;;;33.50;29.25;;;;;25.09;100.00;101077.72;4884005;29;45421;-67
2021/06/16 06:35:11;;;;;;;;;35.25;30.50;;;;;25.10;100.00;101058.03;4884281;29;45285;-67
2021/06/16 06:37:37;;;;;;;;;31.50;29.75;;;;;25.03;100.00;101042.44;4884593;29;45335;-68
2021/06/16 06:43:24;;;;;;;;;35.25;31.25;;;;;25.39;100.00;101066.72;4883960;29;45721;-68
2021/06/16 06:45:49;;;;;;;;;31.75;30.00;;;;;25.48;100.00;101069.56;4884291;29;45375;-68
2021/06/16 06:48:15;;;;;;;;;32.25;30.00;;;;;25.52;100.00;101060.34;4884140;29;45266;-68
2021/06/16 06:50:40;;;;;;;;;34.25;31.50;;;;;25.52;100.00;101049.66;4883470;29;45620;-68
2021/06/16 06:53:06;;;;;;;;;36.00;31.25;;;;;25.63;100.00;101060.47;4884000;29;45351;-69
2021/06/16 06:55:31;;;;;;;;;34.75;32.50;;;;;25.77;100.00;101069.31;4884158;29;45352;-68
2021/06/16 06:57:56;;;;;;;;;35.25;29.25;;;;;25.85;100.00;101059.78;4884180;29;45371;-76
2021/06/16 07:00:22;;;;;;;;;32.00;30.00;;;;;25.91;100.00;101062.00;4883596;29;47005;-70
2021/06/16 07:02:48;;;;;;;;;32.50;29.25;;;;;25.95;100.00;101046.56;4884033;29;45275;-68
2021/06/16 07:05:14;;;;;;;;;31.75;28.50;;;;;26.04;100.00;101050.41;4883850;29;45316;-69
2021/06/16 07:07:40;;;;;;;;;31.50;28.75;;;;;26.11;100.00;101052.50;4883883;29;45443;-69
2021/06/16 07:13:27;;;;;;;;;30.00;29.00;;;;;26.27;100.00;101048.69;4883045;29;45665;-69
2021/06/16 07:15:53;;;;;;;;;24.75;23.75;;;;;26.33;100.00;101041.06;4883565;29;45264;-69
2021/06/16 07:18:18;;;;;;;;;21.25;20.00;;;;;26.41;100.00;101043.16;4883662;29;45538;-69
2021/06/16 07:20:44;;;;;;;;;21.00;20.25;;;;;26.45;100.00;101040.13;4883539;29;46125;-70
2021/06/16 07:23:09;;;;;;;;;21.00;21.00;;;;;26.48;100.00;101037.25;4883632;29;45295;-71
2021/06/16 07:25:34;;;;;;;;;21.75;19.25;;;;;26.59;100.00;101040.91;4883685;29;45276;-70
2021/06/16 07:28:00;;;;;;;;;19.50;18.75;;;;;26.60;100.00;101026.56;4883683;29;45292;-69
2021/06/16 07:30:25;;;;;;;;;21.25;19.75;;;;;26.65;100.00;101019.00;4883049;29;46473;-69
2021/06/16 07:32:53;;;;;;;;;23.00;21.50;;;;;26.77;100.00;101044.88;4882437;29;45378;-69
2021/06/16 07:35:19;;;;;;;;;19.50;18.00;;;;;26.85;100.00;101039.75;4883048;29;45425;-67
2021/06/16 07:37:44;;;;;;;;;20.00;19.25;;;;;26.91;100.00;101036.59;4883550;29;45355;-68
2021/06/16 07:43:31;;;;;;;;;16.50;16.25;;;;;27.00;100.00;101027.88;4882850;29;45508;-69
2021/06/16 07:45:57;;;;;;;;;19.50;17.50;;;;;27.03;100.00;101024.09;4883202;29;45223;-69
2021/06/16 07:48:22;;;;;;;;;16.75;14.75;;;;;27.08;100.00;101022.75;4883244;29;45427;-70
2021/06/16 07:50:47;;;;;;;;;17.75;17.25;;;;;27.18;100.00;101022.06;4882634;29;46424;-69
2021/06/16 07:53:13;;;;;;;;;16.50;15.25;;;;;27.21;100.00;101030.69;4882732;29;45362;-69
2021/06/16 07:55:40;;;;;;;;;14.25;13.00;;;;;27.23;100.00;101014.50;4882823;29;45431;-69
2021/06/16 07:58:07;;;;;;;;;16.00;14.50;;;;;27.31;100.00;101012.88;4883181;29;45350;-69
2021/06/16 08:00:33;;;;;;;;;18.25;16.25;;;;;27.26;100.00;100996.31;4882434;29;46217;-69
2021/06/16 08:02:58;;;;;;;;;18.75;16.25;;;;;27.41;100.00;101013.88;4865604;29;45301;-69
2021/06/16 08:05:23;;;;;;;;;13.50;13.50;;;;;27.42;100.00;101010.22;4882524;29;45376;-69
2021/06/16 08:07:49;;;;;;;;;12.75;12.50;;;;;27.54;100.00;101018.22;4883024;29;45370;-69
2021/06/16 08:13:36;;;;;;;;;16.25;15.50;;;;;27.61;100.00;101008.69;4881882;29;45664;-68
2021/06/16 08:16:02;;;;;;;;;13.75;13.25;;;;;27.68;100.00;101013.50;4882319;29;45368;-69
2021/06/16 08:18:27;;;;;;;;;16.75;15.00;;;;;27.75;100.00;101006.63;4882473;29;45305;-69
2021/06/16 08:20:52;;;;;;;;;17.25;17.00;;;;;27.79;100.00;100993.81;4881847;29;46188;-69
2021/06/16 08:23:18;;;;;;;;;12.00;11.50;;;;;27.85;100.00;101001.38;4882086;29;45309;-69
2021/06/16 08:25:44;;;;;;;;;15.50;14.50;;;;;27.89;100.00;100992.09;4882553;29;45326;-69
2021/06/16 08:28:09;;;;;;;;;13.75;13.00;;;;;27.98;100.00;100995.81;4882578;29;45397;-68
2021/06/16 08:30:35;;;;;;;;;14.25;12.50;;;;;28.05;100.00;100997.00;4882265;29;46636;-68
2021/06/16 08:33:01;;;;;;;;;13.25;11.75;;;;;28.03;100.00;100981.03;4881896;29;45306;-70
2021/06/16 08:35:27;;;;;;;;;14.50;13.50;;;;;28.09;100.00;100989.59;4882006;29;45433;-68
2021/06/16 08:37:52;;;;;;;;;12.00;11.00;;;;;28.12;100.00;100986.63;4882356;29;45385;-69
2021/06/16 08:43:42;;;;;;;;;13.00;12.00;;;;;28.43;100.00;100985.75;4881795;29;45367;-69
2021/06/16 08:46:10;;;;;;;;;13.00;12.50;;;;;28.63;100.00;100981.38;4881894;29;45545;-69
2021/06/16 08:48:36;;;;;;;;;12.00;10.50;;;;;28.77;100.00;100982.88;4881702;29;45400;-69
2021/06/16 08:51:02;;;;;;;;;11.25;10.75;;;;;28.93;100.00;100967.97;4881742;29;46587;-67
2021/06/16 08:53:29;;;;;;;;;12.50;11.50;;;;;29.18;100.00;100984.63;4865061;29;45525;-68
2021/06/16 08:55:54;;;;;;;;;11.00;10.75;;;;;29.30;100.00;100971.94;4881765;29;45385;-67
2021/06/16 08:58:20;;;;;;;;;12.00;10.75;;;;;29.48;100.00;100973.88;4865088;29;45530;-72
2021/06/16 09:00:45;;;;;;;;;11.75;10.00;;;;;29.67;100.00;100977.59;4881918;29;45606;-70
2021/06/16 09:03:11;;;;;;;;;11.00;10.25;;;;;29.90;100.00;100992.50;4864749;29;45332;-68
2021/06/16 09:05:38;;;;;;;;;12.25;12.25;;;;;30.03;100.00;100974.22;4881924;29;45287;-68
2021/06/16 09:08:21;;;;;;;;;12.25;11.50;;;;;30.14;100.00;100976.78;4881900;29;45452;-68
2021/06/16 09:14:20;;;;;;;;;8.00;8.00;;;;;30.68;100.00;100963.69;4881087;29;45432;-68
2021/06/16 09:16:46;;;;;;;;;11.25;11.25;;;;;31.13;100.00;100969.19;4865233;29;45332;-68
2021/06/16 09:19:25;;;;;;;;;10.00;10.00;;;;;31.50;100.00;100968.31;4882010;29;45308;-68
2021/06/16 09:22:04;;;;;;;;;11.50;9.25;;;;;31.82;100.00;100944.38;4881439;29;47324;-68
2021/06/16 09:24:51;;;;;;;;;14.00;11.25;;;;;32.32;100.00;100951.06;4881426;29;45247;-68
2021/06/16 09:27:55;;;;;;;;;9.50;9.00;;;;;32.86;100.00;100963.47;4881826;29;45219;-68
2021/06/16 09:30:23;;;;;;;;;9.50;9.50;;;;;33.17;100.00;100970.00;4787570;29;45443;-67
2021/06/16 09:32:59;;;;;;;;;10.25;10.00;;;;;33.43;100.00;100958.28;4787239;29;46686;-68
2021/06/16 09:35:30;;;;;;;;;10.75;10.00;;;;;33.81;100.00;100954.16;4771915;29;45601;-68
2021/06/16 09:37:57;;;;;;;;;10.00;10.00;;;;;34.10;100.00;100950.97;4787096;29;45288;-70
2021/06/16 09:40:31;;;;;;;;;10.25;9.25;;;;;34.47;100.00;100938.78;4787031;29;45487;-68
2021/06/16 09:43:00;;;;;;;;;9.00;8.00;;;;;34.77;98.57;100948.84;4787060;29;46340;-68
2021/06/16 09:45:26;;;;;;;;;9.50;9.50;;;;;35.02;97.03;100946.94;4786646;29;45714;-68
2021/06/16 09:47:52;;;;;;;;;11.50;10.50;;;;;35.33;96.18;100943.41;4787146;29;45404;-68
2021/06/16 09:50:22;;;;;;;;;9.75;9.25;;;;;35.68;94.09;100936.59;4787084;29;45452;-68
2021/06/16 09:52:48;;;;;;;;;8.25;8.25;;;;;36.01;91.70;100938.06;4787093;29;45588;-68
2021/06/16 09:55:14;;;;;;;;;13.00;11.00;;;;;36.46;93.06;100941.75;4786840;29;45466;-69
2021/06/16 09:58:05;;;;;;;;;12.00;11.25;;;;;36.76;88.54;100927.13;4789007;29;45295;-70
2021/06/16 10:00:37;;;;;;;;;9.50;8.75;;;;;37.18;87.01;100933.78;4814407;29;45560;-70
2021/06/16 10:03:14;;;;;;;;;10.75;10.25;;;;;37.33;83.56;100944.66;4884657;29;46438;-68
2021/06/16 10:06:05;;;;;;;;;12.75;12.00;;;;;37.52;82.65;100943.19;4867355;29;45288;-68
2021/06/16 10:08:36;;;;;;;;;10.00;10.00;;;;;37.79;81.97;100944.34;4884680;29;45312;-69
2021/06/16 10:11:03;;;;;;;;;11.00;10.50;;;;;37.98;79.99;100941.81;4884453;29;45419;-69
2021/06/16 10:13:30;;;;;;;;;11.25;10.25;;;;;38.15;78.82;100931.47;4884213;29;46516;-69
2021/06/16 10:15:57;;;;;;;;;13.00;12.00;;;;;38.29;77.19;100943.38;4884203;29;45459;-69
2021/06/16 10:18:24;;;;;;;;;9.50;9.50;;;;;38.23;77.51;100935.97;4884232;29;45346;-67
2021/06/16 10:20:53;;;;;;;;;9.50;9.25;;;;;38.14;74.35;100937.13;4884499;29;45485;-67
2021/06/16 10:23:20;;;;;;;;;11.00;10.50;;;;;37.89;74.62;100933.97;4883512;29;47188;-67
2021/06/16 10:25:46;;;;;;;;;11.00;10.00;;;;;37.58;74.97;100937.00;4883801;29;45413;-67
2021/06/16 10:28:15;;;;;;;;;10.25;9.25;;;;;37.33;77.85;100931.88;4884065;29;45420;-66
2021/06/16 10:30:43;;;;;;;;;12.50;12.00;;;;;37.24;77.54;100922.13;4884280;29;45366;-67
2021/06/16 10:33:29;;;;;;;;;12.25;11.75;;;;;37.23;76.27;100923.16;4883749;29;45489;-67
2021/06/16 10:36:24;;;;;;;;;9.75;9.50;;;;;37.30;76.82;100925.97;4883746;29;45520;-68
2021/06/16 10:42:11;;;;;;;;;11.00;10.50;;;;;37.47;75.02;100912.97;4789405;29;45447;-68
2021/06/16 10:44:36;;;;;;;;;12.25;11.00;;;;;37.63;74.07;100913.56;4789161;29;45408;-70
2021/06/16 10:47:06;;;;;;;;;11.75;10.75;;;;;37.67;73.03;100894.94;4789289;29;45362;-69
2021/06/16 10:49:46;;;;;;;;;10.50;10.50;;;;;37.77;73.69;100911.00;4789292;29;45570;-69
2021/06/16 10:52:14;;;;;;;;;10.75;10.25;;;;;37.78;72.61;100894.44;4789142;29;45547;-68
2021/06/16 10:58:15;;;;;;;;;9.00;9.00;;;;;38.31;70.81;100894.91;4788960;29;45674;-67
2021/06/16 11:00:40;;;;;;;;;11.00;11.00;;;;;38.49;71.74;100887.06;4789028;29;45466;-69
2021/06/16 11:03:07;;;;;;;;;11.00;11.00;;;;;38.70;69.50;100888.00;4789238;29;45452;-69
2021/06/16 11:05:34;;;;;;;;;10.75;10.75;;;;;38.91;70.24;100891.47;4789040;29;45478;-69
2021/06/16 11:08:02;;;;;;;;;11.50;11.25;;;;;39.19;69.25;100890.56;4787711;29;45338;-68
2021/06/16 11:13:49;;;;;;;;;12.00;11.00;;;;;39.31;68.38;100888.91;4788884;29;45362;-72
2021/06/16 11:16:52;;;;;;;;;10.00;10.00;;;;;39.00;64.33;100878.50;4857716;29;46147;-70
2021/06/16 11:19:26;;;;;;;;;11.00;10.75;;;;;38.54;65.60;100887.28;4864579;29;45435;-71
2021/06/16 11:21:57;;;;;;;;;10.00;10.00;;;;;38.24;65.06;100862.09;4864752;29;45401;-72
2021/06/16 11:25:15;;;;;;;;;10.00;10.00;;;;;38.03;65.43;100861.31;4865052;29;45317;-73
2021/06/16 11:27:59;;;;;;;;;9.50;9.50;;;;;37.72;68.30;100869.84;4807120;29;45831;-71
2021/06/16 11:30:30;;;;;;;;;11.75;11.75;;;;;37.68;68.04;100875.66;4807186;29;45423;-70
2021/06/16 11:33:25;;;;;;;;;12.00;11.00;;;;;37.60;68.14;100878.53;4806999;29;45496;-70
2021/06/16 11:36:03;;;;;;;;;10.00;9.50;;;;;37.54;68.28;100868.41;4807414;29;45386;-71
2021/06/16 11:38:41;;;;;;;;;11.50;11.50;;;;;37.52;69.68;100861.47;4807066;29;45481;-71
2021/06/16 11:41:07;;;;;;;;;11.25;10.50;;;;;37.61;69.57;100857.59;4807091;29;45530;-71
2021/06/16 11:43:37;;;;;;;;;9.75;9.00;;;;;37.51;68.72;100854.31;4807065;29;45342;-70
2021/06/16 11:46:30;;;;;;;;;10.25;9.75;;;;;37.37;70.56;100854.22;4807154;29;45645;-70
2021/06/16 11:49:10;;;;;;;;;11.75;11.75;;;;;37.38;67.91;100855.91;4806563;29;45386;-70
2021/06/16 11:51:53;;;;;;;;;10.00;9.25;;;;;37.39;68.61;100845.84;4806806;29;45410;-70
2021/06/16 11:57:40;;;;;;;;;8.75;8.50;;;;;37.38;66.50;100841.44;4806865;29;45625;-70
2021/06/16 12:00:06;;;;;;;;;9.75;9.75;;;;;37.39;67.17;100849.41;4806725;29;45430;-70
2021/06/16 12:02:33;;;;;;;;;10.25;9.25;;;;;37.23;67.77;100830.56;4806600;29;45303;-70
2021/06/16 12:05:07;;;;;;;;;9.75;9.75;;;;;37.31;67.57;100849.50;4855354;29;45479;-70
2021/06/16 12:07:40;;;;;;;;;9.50;9.50;;;;;37.42;69.53;100839.16;4862787;29;45514;-70
2021/06/16 12:13:28;;;;;;;;;10.00;9.75;;;;;37.55;64.94;100839.25;4870493;29;45478;-70
2021/06/16 12:15:54;;;;;;;;;10.75;10.00;;;;;37.73;64.90;100842.41;4882822;29;45365;-71
2021/06/16 12:18:19;;;;;;;;;9.50;9.50;;;;;38.00;64.82;100821.63;4882820;29;45492;-69